Time;durP1;ratioP1;P1;durP2;ratioP2;P2;SDS_P1;SDS_P2;PMS_P1;PMS_P2;Temp;Humidity;BMP_temperature;BMP_pressure;BME280_temperature;BME280_humidity;BME280_pressure;Samples;Min_cycle;Max_cycle;Signal;HPM_P1;HPM_P2
2022/10/12 00:01:14;;;;;;;12.80;4.50;;;12.40;1.00;;;;;;5085483;28;20204;-72
2022/10/12 00:03:40;;;;;;;10.97;4.80;;;12.30;1.00;;;;;;5088064;28;20180;-72
2022/10/12 00:06:13;;;;;;;12.50;5.30;;;12.20;1.00;;;;;;5084235;28;20168;-73
2022/10/12 00:08:40;;;;;;;14.37;4.77;;;12.20;1.00;;;;;;5089516;28;20230;-72
2022/10/12 00:11:07;;;;;;;13.57;5.33;;;12.20;1.00;;;;;;5082959;28;20456;-73
2022/10/12 00:13:33;;;;;;;18.20;5.33;;;12.10;1.00;;;;;;5082743;28;20501;-72
2022/10/12 00:16:06;;;;;;;10.60;5.37;;;12.00;1.00;;;;;;5088917;28;20516;-76
2022/10/12 00:18:33;;;;;;;12.50;5.67;;;11.90;1.00;;;;;;5095965;28;20184;-74
2022/10/12 00:21:03;;;;;;;20.77;6.43;;;11.90;1.00;;;;;;5087381;28;20445;-75
2022/10/12 00:23:30;;;;;;;14.27;5.97;;;11.80;1.00;;;;;;5089650;28;20832;-74
2022/10/12 00:25:55;;;;;;;12.10;5.33;;;11.80;1.00;;;;;;5086419;28;20444;-72
2022/10/12 00:28:21;;;;;;;14.07;6.17;;;11.80;1.00;;;;;;5089982;28;20462;-72
2022/10/12 00:30:46;;;;;;;10.00;5.30;;;11.80;1.00;;;;;;5082594;28;20200;-72
2022/10/12 00:33:12;;;;;;;11.70;4.83;;;11.80;1.00;;;;;;5089815;28;20188;-73
2022/10/12 00:35:37;;;;;;;21.57;5.70;;;11.90;1.00;;;;;;5088619;28;20221;-72
2022/10/12 00:38:03;;;;;;;7.63;4.30;;;12.00;1.00;;;;;;5083309;28;20225;-72
2022/10/12 00:40:29;;;;;;;10.83;5.03;;;12.10;1.00;;;;;;5076223;28;20294;-75
2022/10/12 00:42:54;;;;;;;11.27;4.77;;;12.00;1.00;;;;;;5087729;28;20391;-72
2022/10/12 00:45:20;;;;;;;12.20;4.77;;;12.20;1.00;;;;;;5084843;28;20180;-73
2022/10/12 00:47:51;;;;;;;11.90;5.07;;;12.30;1.00;;;;;;5087366;28;20268;-74
2022/10/12 00:50:32;;;;;;;11.30;4.77;;;12.40;1.00;;;;;;5092625;28;20200;-76
2022/10/12 00:53:00;;;;;;;11.13;4.77;;;12.40;1.00;;;;;;5081679;28;20426;-74
2022/10/12 00:55:28;;;;;;;11.00;4.53;;;12.40;1.00;;;;;;5083024;28;20646;-73
2022/10/12 00:57:55;;;;;;;10.80;4.10;;;12.40;1.00;;;;;;5088958;28;20418;-72
2022/10/12 01:00:22;;;;;;;13.80;5.10;;;12.50;1.00;;;;;;5085144;28;20451;-74
2022/10/12 01:02:50;;;;;;;10.47;4.73;;;12.50;1.00;;;;;;5087315;28;20418;-74
2022/10/12 01:05:17;;;;;;;9.37;4.70;;;12.60;1.00;;;;;;5078948;28;20434;-73
2022/10/12 01:07:42;;;;;;;10.30;4.57;;;12.70;1.00;;;;;;5088507;28;20457;-75
2022/10/12 01:10:09;;;;;;;11.47;4.77;;;12.70;1.00;;;;;;5089645;28;20504;-74
2022/10/12 01:12:37;;;;;;;9.67;4.50;;;12.70;1.00;;;;;;5081839;28;20263;-75
2022/10/12 01:15:03;;;;;;;12.60;4.80;;;12.80;1.00;;;;;;5070027;28;20402;-73
2022/10/12 01:17:28;;;;;;;13.43;5.00;;;12.70;1.00;;;;;;5089669;28;20414;-73
2022/10/12 01:20:27;;;;;;;16.47;5.33;;;12.80;1.00;;;;;;5089407;28;20501;-74
2022/10/12 01:23:06;;;;;;;9.83;4.10;;;12.80;1.00;;;;;;5078093;28;20172;-73
2022/10/12 01:25:35;;;;;;;13.13;4.70;;;12.80;1.00;;;;;;5081711;28;21285;-74
2022/10/12 01:28:47;;;;;;;9.00;4.40;;;12.80;1.00;;;;;;5080116;28;20851;-76
2022/10/12 01:31:34;;;;;;;13.47;5.30;;;12.90;1.00;;;;;;5067890;28;20425;-74
2022/10/12 01:34:17;;;;;;;7.70;4.00;;;13.00;1.00;;;;;;5085845;28;20959;-74
2022/10/12 01:36:47;;;;;;;13.13;4.80;;;13.00;1.00;;;;;;5089084;28;20432;-73
2022/10/12 01:39:40;;;;;;;8.63;5.17;;;13.00;1.00;;;;;;5086874;28;20433;-74
2022/10/12 01:42:15;;;;;;;7.43;4.17;;;13.00;1.00;;;;;;5076366;28;20429;-74
2022/10/12 01:44:41;;;;;;;12.70;4.87;;;13.00;1.00;;;;;;5084762;28;20441;-73
2022/10/12 01:47:06;;;;;;;11.27;4.60;;;13.00;1.00;;;;;;5093440;28;20409;-74
2022/10/12 01:49:34;;;;;;;7.60;4.70;;;13.00;1.00;;;;;;5087583;28;20214;-74
2022/10/12 01:52:17;;;;;;;11.47;4.83;;;12.90;1.00;;;;;;5085764;28;20646;-72
2022/10/12 01:55:09;;;;;;;11.20;5.23;;;13.20;1.00;;;;;;5092691;28;20838;-76
2022/10/12 01:57:49;;;;;;;10.33;4.80;;;12.70;1.00;;;;;;5088892;28;20409;-76
2022/10/12 02:00:15;;;;;;;8.40;4.40;;;12.60;1.00;;;;;;5084219;28;20445;-73
2022/10/12 02:03:19;;;;;;;8.53;5.20;;;13.00;1.00;;;;;;5092756;28;20438;-74
2022/10/12 02:05:49;;;;;;;12.67;5.10;;;12.70;1.00;;;;;;5080615;28;20516;-73
2022/10/12 02:08:22;;;;;;;9.30;4.87;;;12.60;1.00;;;;;;5092626;28;20540;-73
2022/10/12 02:11:10;;;;;;;9.40;5.20;;;12.50;1.00;;;;;;5089421;28;20866;-72
2022/10/12 02:13:49;;;;;;;15.10;5.10;;;12.60;1.00;;;;;;5089259;28;20944;-73
2022/10/12 02:16:19;;;;;;;8.83;4.80;;;12.60;1.00;;;;;;5090077;28;20915;-75
2022/10/12 02:18:51;;;;;;;11.50;4.50;;;12.60;1.00;;;;;;5099880;28;20417;-74
2022/10/12 02:21:21;;;;;;;11.73;4.93;;;12.60;1.00;;;;;;5078005;28;20517;-76
2022/10/12 02:23:49;;;;;;;9.93;4.47;;;12.50;1.00;;;;;;5090386;28;20432;-75
2022/10/12 02:26:15;;;;;;;10.00;4.43;;;12.50;1.00;;;;;;5084399;28;20467;-76
2022/10/12 02:28:43;;;;;;;12.57;4.80;;;12.60;1.00;;;;;;5092012;28;20457;-74
2022/10/12 02:31:28;;;;;;;9.90;4.60;;;12.50;1.00;;;;;;5083688;28;20328;-74
2022/10/12 02:34:02;;;;;;;10.63;4.80;;;12.50;1.00;;;;;;5087143;28;21001;-73
2022/10/12 02:36:47;;;;;;;13.40;4.80;;;12.50;1.00;;;;;;5086468;28;20940;-73
2022/10/12 02:39:39;;;;;;;10.30;5.47;;;12.50;1.00;;;;;;5085498;28;20441;-73
2022/10/12 02:42:09;;;;;;;12.60;5.20;;;12.50;1.00;;;;;;5090131;28;20505;-72
2022/10/12 02:44:38;;;;;;;13.60;5.33;;;12.50;1.00;;;;;;5092344;28;20414;-74
2022/10/12 02:47:06;;;;;;;19.07;6.10;;;12.50;1.00;;;;;;5088822;28;20421;-74
2022/10/12 02:49:34;;;;;;;16.23;6.33;;;12.40;1.00;;;;;;5080516;28;20553;-75
2022/10/12 02:52:04;;;;;;;12.03;5.90;;;12.40;1.00;;;;;;5081505;28;20426;-73
2022/10/12 02:54:30;;;;;;;12.37;6.70;;;12.40;1.00;;;;;;5092210;28;20467;-73
2022/10/12 02:56:56;;;;;;;14.60;6.27;;;12.40;1.00;;;;;;5084125;28;20836;-75
2022/10/12 02:59:21;;;;;;;12.30;6.20;;;12.40;1.00;;;;;;5091976;28;20200;-73
2022/10/12 03:01:47;;;;;;;11.40;5.87;;;12.40;1.00;;;;;;5083666;28;20229;-74
2022/10/12 03:04:13;;;;;;;15.00;6.43;;;12.40;1.00;;;;;;5092261;28;20242;-74
2022/10/12 03:06:38;;;;;;;13.33;6.30;;;12.30;1.00;;;;;;5084330;28;20234;-74
2022/10/12 03:09:04;;;;;;;13.53;6.20;;;12.30;1.00;;;;;;5090324;28;20813;-75
2022/10/12 03:11:30;;;;;;;18.70;6.23;;;12.20;1.00;;;;;;5085487;28;20182;-75
2022/10/12 03:13:56;;;;;;;15.20;6.70;;;12.20;1.00;;;;;;5091289;28;20786;-72
2022/10/12 03:16:22;;;;;;;14.53;6.50;;;12.20;1.00;;;;;;5086282;28;20422;-72
2022/10/12 03:18:48;;;;;;;14.07;6.57;;;12.20;1.00;;;;;;5090168;28;20421;-74
2022/10/12 03:21:14;;;;;;;9.70;5.70;;;12.10;1.00;;;;;;5073171;28;20462;-75
2022/10/12 03:23:39;;;;;;;14.93;6.17;;;12.00;1.00;;;;;;5089011;28;20186;-73
2022/10/12 03:26:05;;;;;;;13.40;6.30;;;12.00;1.00;;;;;;5076874;28;20201;-73
2022/10/12 03:28:31;;;;;;;14.00;6.00;;;12.00;1.00;;;;;;5091047;28;20566;-73
2022/10/12 03:30:57;;;;;;;15.57;6.03;;;12.10;1.00;;;;;;5083651;28;20720;-72
2022/10/12 03:33:23;;;;;;;15.03;6.57;;;12.10;1.00;;;;;;5091588;28;20414;-74
2022/10/12 03:35:49;;;;;;;12.27;6.20;;;12.00;1.00;;;;;;5084361;28;20462;-74
2022/10/12 03:38:15;;;;;;;12.93;6.17;;;11.90;1.00;;;;;;5089892;28;20167;-76
2022/10/12 03:40:41;;;;;;;15.30;6.20;;;11.90;1.00;;;;;;5089206;28;20563;-73
2022/10/12 03:43:07;;;;;;;13.93;5.70;;;11.90;1.00;;;;;;5090254;28;20467;-73
2022/10/12 03:45:33;;;;;;;12.83;5.93;;;11.70;1.00;;;;;;5085668;28;20442;-73
2022/10/12 03:47:59;;;;;;;14.00;6.23;;;11.60;1.00;;;;;;5094605;28;20214;-73
2022/10/12 03:50:24;;;;;;;11.30;6.40;;;11.60;1.00;;;;;;5093862;28;20253;-73
2022/10/12 03:52:50;;;;;;;14.97;6.40;;;11.60;1.00;;;;;;5083586;28;20187;-73
2022/10/12 03:55:15;;;;;;;18.53;6.17;;;11.60;1.00;;;;;;5083967;28;20173;-75
2022/10/12 03:57:41;;;;;;;14.97;7.50;;;11.50;1.00;;;;;;5089765;28;20669;-73
2022/10/12 04:00:07;;;;;;;17.87;6.60;;;11.50;1.00;;;;;;5087155;28;20290;-73
2022/10/12 04:02:33;;;;;;;16.53;6.90;;;11.30;1.00;;;;;;5085313;28;20568;-72
2022/10/12 04:04:58;;;;;;;17.23;6.47;;;11.30;1.00;;;;;;5076440;28;20452;-73
2022/10/12 04:07:24;;;;;;;15.57;7.50;;;11.30;1.00;;;;;;5088674;28;20176;-73
2022/10/12 04:09:49;;;;;;;12.33;6.03;;;11.30;1.00;;;;;;5090143;28;20188;-71
2022/10/12 04:12:15;;;;;;;10.30;5.73;;;11.30;1.00;;;;;;5084868;28;20552;-73
2022/10/12 04:14:40;;;;;;;13.00;6.43;;;11.30;1.00;;;;;;5080454;28;20196;-74
2022/10/12 04:17:06;;;;;;;12.80;6.07;;;11.30;1.00;;;;;;5090005;28;20680;-72
2022/10/12 04:19:32;;;;;;;15.53;5.63;;;11.30;1.00;;;;;;5086522;28;20240;-73
2022/10/12 04:21:57;;;;;;;12.87;5.43;;;11.20;1.00;;;;;;5083522;28;20180;-73
2022/10/12 04:24:23;;;;;;;13.10;5.43;;;11.20;1.00;;;;;;5089757;28;20184;-75
2022/10/12 04:26:48;;;;;;;18.37;5.30;;;11.20;1.00;;;;;;5078678;28;20187;-72
2022/10/12 04:29:14;;;;;;;10.77;5.40;;;11.10;1.00;;;;;;5089476;28;20235;-72
2022/10/12 04:31:40;;;;;;;17.67;5.47;;;11.10;1.00;;;;;;5083882;28;20187;-73
2022/10/12 04:34:07;;;;;;;11.93;5.03;;;11.10;1.00;;;;;;5090359;28;20171;-73
2022/10/12 04:36:33;;;;;;;11.20;4.50;;;11.10;1.00;;;;;;5086065;28;20433;-74
2022/10/12 04:38:58;;;;;;;12.90;5.00;;;11.00;1.00;;;;;;5089381;28;20428;-73
2022/10/12 04:41:24;;;;;;;12.53;5.20;;;10.90;1.00;;;;;;5084136;28;20677;-73
2022/10/12 04:43:52;;;;;;;14.60;4.47;;;10.90;1.00;;;;;;5089987;28;20183;-72
2022/10/12 04:46:17;;;;;;;12.27;4.50;;;10.90;1.00;;;;;;5085045;28;20718;-72
2022/10/12 04:48:43;;;;;;;10.60;5.10;;;10.90;1.00;;;;;;5087227;28;20458;-73
2022/10/12 04:51:08;;;;;;;16.37;5.03;;;11.10;1.00;;;;;;5082987;28;20237;-72
2022/10/12 04:53:34;;;;;;;11.20;4.50;;;11.10;1.00;;;;;;5089399;28;20623;-72
2022/10/12 04:56:04;;;;;;;12.50;4.63;;;11.40;1.00;;;;;;5075793;28;20171;-73
2022/10/12 04:58:30;;;;;;;13.03;4.53;;;11.10;1.00;;;;;;5089814;28;20263;-73
2022/10/12 05:00:55;;;;;;;11.57;4.63;;;11.10;1.00;;;;;;5086242;28;20528;-71
2022/10/12 05:03:21;;;;;;;12.23;4.77;;;11.10;1.00;;;;;;5089969;28;20288;-73
2022/10/12 05:05:47;;;;;;;12.43;4.27;;;11.10;1.00;;;;;;5087237;28;20187;-73
2022/10/12 05:08:12;;;;;;;9.70;4.53;;;11.10;1.00;;;;;;5088199;28;20196;-73
2022/10/12 05:10:39;;;;;;;12.83;4.97;;;11.10;1.00;;;;;;5089701;28;20191;-73
2022/10/12 05:13:04;;;;;;;13.53;4.70;;;11.20;1.00;;;;;;5089275;28;20188;-73
2022/10/12 05:15:30;;;;;;;15.63;5.20;;;11.20;1.00;;;;;;5084174;28;20465;-74
2022/10/12 05:17:55;;;;;;;10.77;4.90;;;11.20;1.00;;;;;;5092822;28;20201;-73
2022/10/12 05:20:21;;;;;;;13.20;5.70;;;11.10;1.00;;;;;;5094193;28;20200;-72
2022/10/12 05:22:47;;;;;;;13.60;5.40;;;11.00;1.00;;;;;;5079969;28;20187;-74
2022/10/12 05:25:12;;;;;;;17.63;5.73;;;11.10;1.00;;;;;;5084036;28;20183;-73
2022/10/12 05:27:38;;;;;;;10.93;4.97;;;11.10;1.00;;;;;;5084996;28;20172;-73
2022/10/12 05:30:05;;;;;;;16.87;5.50;;;11.10;1.00;;;;;;5088439;28;20302;-73
2022/10/12 05:32:30;;;;;;;8.70;5.00;;;11.10;1.00;;;;;;5085821;28;20187;-73
2022/10/12 05:34:56;;;;;;;33.17;6.40;;;11.10;1.00;;;;;;5084849;28;20425;-73
2022/10/12 05:37:21;;;;;;;12.33;6.67;;;11.20;1.00;;;;;;5084979;28;20191;-74
2022/10/12 05:39:48;;;;;;;24.17;7.13;;;11.20;1.00;;;;;;5086430;28;20204;-72
2022/10/12 05:42:14;;;;;;;15.03;8.03;;;11.20;1.00;;;;;;5084599;28;20249;-74
2022/10/12 05:44:40;;;;;;;20.97;8.23;;;11.10;1.00;;;;;;5086404;28;20409;-73
2022/10/12 05:47:06;;;;;;;13.83;7.60;;;11.10;1.00;;;;;;5095311;28;20782;-73
2022/10/12 05:49:31;;;;;;;14.60;7.50;;;11.10;1.00;;;;;;5084668;28;20301;-73
2022/10/12 05:51:57;;;;;;;19.73;8.50;;;11.10;1.00;;;;;;5082216;28;20180;-73
2022/10/12 05:54:22;;;;;;;19.20;7.93;;;11.00;1.00;;;;;;5088354;28;20206;-74
2022/10/12 05:56:48;;;;;;;13.93;7.23;;;11.10;1.00;;;;;;5085478;28;20176;-72
2022/10/12 05:59:13;;;;;;;16.80;8.40;;;11.10;1.00;;;;;;5086261;28;20176;-73
2022/10/12 06:01:39;;;;;;;18.07;7.63;;;11.10;1.00;;;;;;5087093;28;20191;-73
2022/10/12 06:04:05;;;;;;;17.80;7.93;;;11.20;1.00;;;;;;5086630;28;20447;-78
2022/10/12 06:06:30;;;;;;;13.17;7.23;;;11.20;1.00;;;;;;5078289;28;20775;-79
2022/10/12 06:08:56;;;;;;;12.10;6.07;;;11.20;1.00;;;;;;5076703;28;20207;-78
2022/10/12 06:11:21;;;;;;;15.27;7.30;;;11.40;1.00;;;;;;5074579;28;20176;-79
2022/10/12 06:13:47;;;;;;;17.13;6.20;;;11.40;1.00;;;;;;5077648;28;20187;-78
2022/10/12 06:16:12;;;;;;;12.30;6.87;;;11.50;1.00;;;;;;5084084;28;20233;-78
2022/10/12 06:18:38;;;;;;;13.60;6.57;;;11.50;1.00;;;;;;5082096;28;20180;-80
2022/10/12 06:21:03;;;;;;;11.27;5.77;;;11.30;1.00;;;;;;5096528;28;20443;-79
2022/10/12 06:23:29;;;;;;;13.80;6.20;;;11.30;1.00;;;;;;5093631;28;20310;-76
2022/10/12 06:25:54;;;;;;;11.33;5.70;;;11.40;1.00;;;;;;5080717;28;20222;-77
2022/10/12 06:28:20;;;;;;;14.77;7.00;;;11.40;1.00;;;;;;5090481;28;20210;-81
2022/10/12 06:30:52;;;;;;;20.67;7.10;;;11.40;1.00;;;;;;5089705;28;20953;-80
2022/10/12 06:33:17;;;;;;;11.67;4.93;;;12.10;1.00;;;;;;5092638;28;20163;-76
2022/10/12 06:35:43;;;;;;;17.40;6.10;;;11.60;1.00;;;;;;5078825;28;20430;-73
2022/10/12 06:38:08;;;;;;;11.50;5.27;;;11.70;1.00;;;;;;5078981;28;20245;-73
2022/10/12 06:40:34;;;;;;;12.53;5.73;;;11.80;1.00;;;;;;5091997;28;20199;-73
2022/10/12 06:43:01;;;;;;;16.57;7.10;;;11.70;1.00;;;;;;5062458;28;20241;-77
2022/10/12 06:45:28;;;;;;;14.53;8.77;;;11.70;1.00;;;;;;5078302;28;20207;-74
2022/10/12 06:47:54;;;;;;;19.10;9.87;;;11.80;1.00;;;;;;5086641;28;20457;-72
2022/10/12 06:50:20;;;;;;;14.53;8.13;;;11.80;1.00;;;;;;5081466;28;20828;-74
2022/10/12 06:52:46;;;;;;;15.90;8.20;;;11.80;1.00;;;;;;5083991;28;20337;-72
2022/10/12 06:55:12;;;;;;;14.47;8.30;;;12.00;1.00;;;;;;5077659;28;20172;-73
2022/10/12 06:57:37;;;;;;;13.70;7.63;;;12.10;1.00;;;;;;5087515;28;20422;-71
2022/10/12 07:00:05;;;;;;;15.97;7.30;;;13.10;1.00;;;;;;5085628;28;20186;-72
2022/10/12 07:02:31;;;;;;;16.73;7.30;;;12.30;1.00;;;;;;5086880;28;20267;-72
2022/10/12 07:04:57;;;;;;;17.50;7.77;;;12.40;1.00;;;;;;5082411;28;21058;-74
2022/10/12 07:07:22;;;;;;;16.83;8.10;;;13.00;1.00;;;;;;5080331;28;20693;-74
2022/10/12 07:09:48;;;;;;;12.00;6.60;;;12.70;1.00;;;;;;5082546;28;20485;-73
2022/10/12 07:12:13;;;;;;;12.97;5.60;;;14.00;1.00;;;;;;5088641;28;20211;-71
2022/10/12 07:14:39;;;;;;;15.77;5.90;;;12.80;1.00;;;;;;5086588;28;20647;-74
2022/10/12 07:17:04;;;;;;;14.53;7.60;;;12.80;1.00;;;;;;5095872;28;20183;-72
2022/10/12 07:19:30;;;;;;;13.77;6.50;;;12.60;1.00;;;;;;5088929;28;20195;-72
2022/10/12 07:21:56;;;;;;;17.97;7.77;;;12.60;1.00;;;;;;5073368;28;20271;-75
2022/10/12 07:24:21;;;;;;;21.93;6.70;;;13.00;1.00;;;;;;5092427;28;20220;-74
2022/10/12 07:26:48;;;;;;;17.40;6.90;;;12.70;1.00;;;;;;5079003;28;20180;-73
2022/10/12 07:29:14;;;;;;;17.57;7.10;;;12.60;1.00;;;;;;5085540;28;20223;-73
2022/10/12 07:31:41;;;;;;;15.30;7.87;;;12.70;1.00;;;;;;5098427;28;20397;-76
2022/10/12 07:34:06;;;;;;;13.47;7.10;;;12.90;1.00;;;;;;5081089;28;20184;-72
2022/10/12 07:36:32;;;;;;;13.23;6.57;;;13.10;1.00;;;;;;5092196;28;20406;-72
2022/10/12 07:38:58;;;;;;;12.87;6.30;;;13.30;1.00;;;;;;5079726;28;20187;-72
2022/10/12 07:41:24;;;;;;;14.40;6.60;;;13.70;1.00;;;;;;5086473;28;20599;-72
2022/10/12 07:43:54;;;;;;;14.47;6.37;;;13.90;1.00;;;;;;5083759;28;20271;-71
2022/10/12 07:46:20;;;;;;;10.80;6.20;;;13.90;1.00;;;;;;5088468;28;20237;-71
2022/10/12 07:48:45;;;;;;;15.70;7.97;;;14.00;1.00;;;;;;5086832;28;20466;-72
2022/10/12 07:51:11;;;;;;;18.33;6.43;;;14.10;1.00;;;;;;5085683;28;20207;-73
2022/10/12 07:53:38;;;;;;;16.40;8.23;;;14.10;1.00;;;;;;5086366;28;20229;-72
2022/10/12 07:56:06;;;;;;;12.03;6.83;;;14.40;1.00;;;;;;5088969;28;20176;-72
2022/10/12 07:58:32;;;;;;;18.40;7.13;;;14.40;1.00;;;;;;5090207;28;20414;-72
2022/10/12 08:01:05;;;;;;;17.60;7.70;;;14.60;1.00;;;;;;5086465;28;20534;-73
2022/10/12 08:03:31;;;;;;;15.20;7.43;;;14.50;1.00;;;;;;5084613;28;21299;-73
2022/10/12 08:05:56;;;;;;;14.03;7.50;;;14.60;1.00;;;;;;5085590;28;20429;-75
2022/10/12 08:08:22;;;;;;;11.00;6.40;;;14.70;1.00;;;;;;5084574;28;20703;-75
2022/10/12 08:10:48;;;;;;;12.50;6.00;;;14.90;1.00;;;;;;5090833;28;20202;-76
2022/10/12 08:13:13;;;;;;;15.27;6.40;;;15.20;1.00;;;;;;5086262;28;20232;-75
2022/10/12 08:15:39;;;;;;;17.50;6.90;;;15.30;1.00;;;;;;5085612;28;20192;-75
2022/10/12 08:18:05;;;;;;;13.67;6.37;;;15.50;1.00;;;;;;5093901;28;20182;-73
2022/10/12 08:20:30;;;;;;;15.53;6.37;;;15.40;1.00;;;;;;5084357;28;20229;-76
2022/10/12 08:22:56;;;;;;;19.43;6.67;;;15.30;1.00;;;;;;5088525;28;20223;-76
2022/10/12 08:25:21;;;;;;;13.87;5.63;;;15.20;1.00;;;;;;5086733;28;20180;-73
2022/10/12 08:27:47;;;;;;;15.83;6.60;;;15.20;1.00;;;;;;5089440;28;20187;-75
2022/10/12 08:30:13;;;;;;;12.87;6.80;;;15.30;1.00;;;;;;5102784;28;20274;-73
2022/10/12 08:32:38;;;;;;;15.03;6.80;;;15.40;1.00;;;;;;5089904;28;20542;-73
2022/10/12 08:35:04;;;;;;;13.47;6.17;;;15.50;1.00;;;;;;5079951;28;20171;-73
2022/10/12 08:37:30;;;;;;;17.33;7.10;;;15.70;1.00;;;;;;5082025;28;20176;-73
2022/10/12 08:39:56;;;;;;;14.57;6.83;;;15.70;1.00;;;;;;5083755;28;20451;-74
2022/10/12 08:42:43;;;;;;;17.97;7.37;;;15.70;1.00;;;;;;5094334;28;20201;-77
2022/10/12 08:45:17;;;;;;;17.83;6.90;;;15.90;1.00;;;;;;5079688;28;20184;-73
2022/10/12 08:47:50;;;;;;;13.63;6.80;;;15.90;1.00;;;;;;5087342;28;20408;-74
2022/10/12 08:50:56;;;;;;;17.27;7.10;;;15.90;1.00;;;;;;5083806;28;20959;-75
2022/10/12 08:53:36;;;;;;;16.60;7.37;;;16.00;1.00;;;;;;5092583;28;20433;-73
2022/10/12 08:56:02;;;;;;;12.90;6.97;;;15.90;1.00;;;;;;5076045;28;20426;-73
2022/10/12 08:58:30;;;;;;;21.13;8.60;;;15.90;1.00;;;;;;5085877;28;20565;-74
2022/10/12 09:01:19;;;;;;;14.80;7.43;;;15.80;1.00;;;;;;5081360;28;20188;-74
2022/10/12 09:04:20;;;;;;;13.47;7.50;;;15.80;1.00;;;;;;5077186;28;20510;-74
2022/10/12 09:07:16;;;;;;;14.60;7.33;;;15.90;1.00;;;;;;5088770;28;20548;-73
2022/10/12 09:09:51;;;;;;;14.43;8.17;;;15.80;1.00;;;;;;5090346;28;20473;-77
2022/10/12 09:12:43;;;;;;;16.43;7.80;;;15.70;1.00;;;;;;5087922;28;20996;-73
2022/10/12 09:15:25;;;;;;;21.63;8.20;;;15.60;1.00;;;;;;5095685;28;20458;-74
2022/10/12 09:17:58;;;;;;;15.00;6.97;;;15.70;1.00;;;;;;5101898;28;20436;-74
2022/10/12 09:20:34;;;;;;;12.60;7.10;;;15.60;1.00;;;;;;5097376;28;20791;-76
2022/10/12 09:23:08;;;;;;;23.53;7.40;;;15.70;1.00;;;;;;5085066;28;20430;-74
2022/10/12 09:25:34;;;;;;;17.93;8.00;;;15.70;1.00;;;;;;5082698;28;20818;-73
2022/10/12 09:28:14;;;;;;;14.93;7.93;;;15.90;1.00;;;;;;5086361;28;20510;-74
2022/10/12 09:30:52;;;;;;;16.93;7.90;;;16.30;1.00;;;;;;5088866;28;20259;-73
2022/10/12 09:33:26;;;;;;;13.60;7.30;;;16.40;1.00;;;;;;5086273;28;20436;-74
2022/10/12 09:35:52;;;;;;;12.63;8.03;;;16.60;1.00;;;;;;5088320;28;20775;-74
2022/10/12 09:38:17;;;;;;;19.13;8.00;;;16.90;1.00;;;;;;5077726;28;20527;-74
2022/10/12 09:40:44;;;;;;;19.00;8.40;;;17.20;1.00;;;;;;5085738;28;20199;-75
2022/10/12 09:43:10;;;;;;;20.17;8.83;;;17.40;1.00;;;;;;5078028;28;20176;-74
2022/10/12 09:45:37;;;;;;;17.10;9.33;;;17.70;1.00;;;;;;5081064;28;20426;-74
2022/10/12 09:48:18;;;;;;;15.23;8.03;;;17.80;1.00;;;;;;5085973;28;20458;-73
2022/10/12 09:50:48;;;;;;;19.50;8.97;;;17.80;1.00;;;;;;5096147;28;20440;-77
2022/10/12 09:53:24;;;;;;;18.77;9.50;;;17.90;1.00;;;;;;5085988;28;20437;-74
2022/10/12 09:56:21;;;;;;;18.40;10.03;;;18.10;1.00;;;;;;5088080;28;20756;-73
2022/10/12 09:59:01;;;;;;;18.53;9.10;;;18.20;1.00;;;;;;5093588;28;20432;-73
2022/10/12 10:01:29;;;;;;;14.23;10.07;;;18.20;1.00;;;;;;5085508;28;20436;-76
2022/10/12 10:04:12;;;;;;;18.90;9.70;;;18.40;1.00;;;;;;5093676;28;20433;-76
2022/10/12 10:06:41;;;;;;;20.30;8.93;;;18.40;1.00;;;;;;5091425;28;20556;-72
2022/10/12 10:09:32;;;;;;;23.30;9.90;;;18.70;1.00;;;;;;5092351;28;20940;-76
2022/10/12 10:12:12;;;;;;;18.80;9.47;;;19.00;1.00;;;;;;5095269;28;20417;-74
2022/10/12 10:14:40;;;;;;;16.33;9.80;;;19.20;1.00;;;;;;5094861;28;20417;-74
2022/10/12 10:17:06;;;;;;;17.53;9.90;;;19.30;1.00;;;;;;5095534;28;20792;-74
2022/10/12 10:19:31;;;;;;;15.03;9.40;;;19.30;1.00;;;;;;5102036;28;20439;-75
2022/10/12 10:22:05;;;;;;;23.27;10.07;;;19.10;1.00;;;;;;5088146;28;20605;-74
2022/10/12 10:24:32;;;;;;;17.80;10.73;;;19.00;1.00;;;;;;5081843;28;20181;-74
2022/10/12 10:27:04;;;;;;;17.97;10.70;;;18.90;1.00;;;;;;5092820;28;20421;-75
2022/10/12 10:29:39;;;;;;;17.47;10.37;;;18.90;1.00;;;;;;5101525;28;20468;-75
2022/10/12 10:32:28;;;;;;;21.70;9.97;;;19.10;1.00;;;;;;5101025;28;20729;-74
2022/10/12 10:35:12;;;;;;;16.10;10.30;;;18.90;1.00;;;;;;5112038;28;20477;-76
2022/10/12 10:37:50;;;;;;;18.53;10.70;;;19.10;1.00;;;;;;5098229;28;20413;-75
2022/10/12 10:40:25;;;;;;;23.83;11.13;;;19.00;1.00;;;;;;5098014;28;20445;-73
2022/10/12 10:42:54;;;;;;;23.10;11.40;;;19.20;1.00;;;;;;5087792;28;20441;-74
2022/10/12 10:45:26;;;;;;;22.83;11.50;;;19.40;1.00;;;;;;5087060;28;20460;-74
2022/10/12 10:48:00;;;;;;;19.33;11.20;;;19.30;1.00;;;;;;5090850;28;20410;-74
2022/10/12 10:50:35;;;;;;;20.07;11.60;;;19.20;1.00;;;;;;5092836;28;20430;-74
2022/10/12 10:53:13;;;;;;;20.93;11.00;;;19.50;1.00;;;;;;5083956;28;20489;-75
2022/10/12 10:56:03;;;;;;;20.70;11.53;;;19.80;1.00;;;;;;5087011;28;20426;-74
2022/10/12 10:58:36;;;;;;;23.43;11.10;;;19.80;1.00;;;;;;5093816;28;20453;-74
2022/10/12 11:01:21;;;;;;;20.43;11.17;;;20.10;1.00;;;;;;5083911;28;20490;-76
2022/10/12 11:04:04;;;;;;;17.90;11.23;;;20.50;1.00;;;;;;5092962;28;20916;-74
2022/10/12 11:06:46;;;;;;;22.80;10.93;;;21.10;1.00;;;;;;5104292;28;20415;-75
2022/10/12 11:09:22;;;;;;;19.03;11.50;;;21.60;1.00;;;;;;5087888;28;20843;-73
2022/10/12 11:11:58;;;;;;;23.33;11.40;;;21.80;1.00;;;;;;5093168;28;20529;-75
2022/10/12 11:14:29;;;;;;;22.20;10.87;;;22.30;1.00;;;;;;5096563;28;20395;-77
2022/10/12 11:17:00;;;;;;;15.73;10.50;;;22.90;1.00;;;;;;5095459;28;20413;-75
2022/10/12 11:19:39;;;;;;;18.80;11.40;;;24.00;1.00;;;;;;5094784;28;20516;-76
2022/10/12 11:22:17;;;;;;;20.03;11.33;;;25.20;1.00;;;;;;5096372;28;20413;-74
2022/10/12 11:24:57;;;;;;;17.27;10.67;;;26.40;1.00;;;;;;5096455;28;20847;-75
2022/10/12 11:27:39;;;;;;;22.60;11.27;;;28.70;1.00;;;;;;5103810;28;20488;-77
2022/10/12 11:30:20;;;;;;;19.90;11.20;;;29.30;1.00;;;;;;5098177;28;20476;-75
2022/10/12 11:33:12;;;;;;;15.57;11.10;;;30.00;1.00;;;;;;5090552;28;20210;-76
2022/10/12 11:35:44;;;;;;;16.03;11.00;;;31.10;1.00;;;;;;5091839;28;20190;-77
2022/10/12 11:38:18;;;;;;;21.00;10.90;;;31.90;1.00;;;;;;5092513;28;20210;-76
2022/10/12 11:41:02;;;;;;;23.67;11.73;;;32.00;1.00;;;;;;5091746;28;20303;-77
2022/10/12 11:43:35;;;;;;;15.50;10.10;;;33.30;1.00;;;;;;5090522;28;20186;-79
2022/10/12 11:46:04;;;;;;;17.85;10.10;;;34.80;1.00;;;;;;5083441;28;20675;-79
2022/10/12 11:48:37;;;;;;;16.33;9.82;;;34.80;1.00;;;;;;5097012;28;20218;-79
2022/10/12 11:51:03;;;;;;;19.08;10.20;;;34.90;1.00;;;;;;5090002;28;20244;-79
2022/10/12 11:54:05;;;;;;;15.98;10.85;;;34.60;1.00;;;;;;5095932;28;20184;-78
2022/10/12 11:56:39;;;;;;;14.32;10.07;;;35.30;1.00;;;;;;5087180;28;20178;-78
2022/10/12 11:59:30;;;;;;;15.45;9.82;;;35.90;1.00;;;;;;5088503;28;20270;-79
2022/10/12 12:02:08;;;;;;;16.52;9.60;;;36.10;1.00;;;;;;5087761;28;20178;-78
2022/10/12 12:04:35;;;;;;;19.80;10.45;;;36.40;1.00;;;;;;5080287;28;20597;-78
2022/10/12 12:07:01;;;;;;;17.10;9.25;;;37.10;1.00;;;;;;5083496;28;20167;-78
2022/10/12 12:09:40;;;;;;;17.02;10.05;;;37.40;1.00;;;;;;5077247;28;20211;-79
2022/10/12 12:12:20;;;;;;;16.55;9.77;;;37.00;1.00;;;;;;5087760;28;20570;-79
2022/10/12 12:14:48;;;;;;;17.95;9.82;;;36.20;1.00;;;;;;5083615;28;20195;-78
2022/10/12 12:17:17;;;;;;;14.77;10.70;;;36.10;1.00;;;;;;5079190;28;20186;-78
2022/10/12 12:20:23;;;;;;;15.10;11.23;;;36.00;1.00;;;;;;5086251;28;20207;-78
2022/10/12 12:22:54;;;;;;;15.20;9.40;;;36.20;1.00;;;;;;5090095;28;20191;-78
2022/10/12 12:25:34;;;;;;;18.20;9.70;;;37.30;1.00;;;;;;5081926;28;20646;-78
2022/10/12 12:28:16;;;;;;;15.38;9.93;;;36.70;1.00;;;;;;5092309;28;20182;-78
2022/10/12 12:30:53;;;;;;;13.93;9.50;;;36.90;1.00;;;;;;5087079;28;20217;-78
2022/10/12 12:33:18;;;;;;;17.40;9.38;;;36.90;1.00;;;;;;5089187;28;20653;-78
2022/10/12 12:36:06;;;;;;;17.25;9.98;;;37.60;1.00;;;;;;5089060;28;20179;-78
2022/10/12 12:38:39;;;;;;;19.65;10.63;;;38.10;1.00;;;;;;5086125;28;20183;-78
2022/10/12 12:41:17;;;;;;;19.70;10.48;;;37.80;1.00;;;;;;5079446;28;20195;-78
2022/10/12 12:43:57;;;;;;;15.77;10.82;;;37.10;1.00;;;;;;5082332;28;20179;-78
2022/10/12 12:46:25;;;;;;;12.75;9.23;;;36.30;1.00;;;;;;5087342;28;20695;-77
2022/10/12 12:48:51;;;;;;;15.43;9.18;;;36.40;1.00;;;;;;5088263;28;20319;-77
2022/10/12 12:51:34;;;;;;;14.65;9.30;;;36.50;1.00;;;;;;5097617;28;20225;-78
2022/10/12 12:54:03;;;;;;;11.73;8.50;;;37.50;1.00;;;;;;5088885;28;20643;-77
2022/10/12 12:56:44;;;;;;;16.23;8.95;;;36.20;1.00;;;;;;5085551;28;20198;-78
2022/10/12 12:59:59;;;;;;;18.25;10.32;;;30.40;1.00;;;;;;5081022;28;20232;-77
2022/10/12 13:02:50;;;;;;;15.98;9.98;;;29.90;1.00;;;;;;5084463;28;20171;-78
2022/10/12 13:05:22;;;;;;;16.97;9.10;;;27.80;1.00;;;;;;5080401;28;20233;-79